Time;durP1;ratioP1;P1;durP2;ratioP2;P2;SDS_P1;SDS_P2;PMS_P1;PMS_P2;Temp;Humidity;BMP_temperature;BMP_pressure;BME280_temperature;BME280_humidity;BME280_pressure;Samples;Min_cycle;Max_cycle;Signal;HPM_P1;HPM_P2
2023/02/01 00:02:08;;;;;;;1.60;0.70;;;4.40;99.90;;;;;;5113399;28;20732;-61
2023/02/01 00:04:35;;;;;;;0.95;0.70;;;4.30;99.90;;;;;;5117056;28;20424;-61
2023/02/01 00:07:02;;;;;;;1.30;0.73;;;4.30;99.90;;;;;;5117875;28;20420;-61
2023/02/01 00:09:30;;;;;;;1.10;0.70;;;4.40;99.90;;;;;;5117512;28;20498;-61
2023/02/01 00:12:01;;;;;;;1.00;0.60;;;4.40;99.90;;;;;;5116766;28;20416;-61
2023/02/01 00:14:28;;;;;;;1.30;0.65;;;4.30;99.90;;;;;;5116851;28;20428;-58
2023/02/01 00:16:56;;;;;;;1.50;0.70;;;4.30;99.90;;;;;;5115713;28;20424;-58
2023/02/01 00:19:23;;;;;;;1.20;0.70;;;4.40;99.90;;;;;;5117946;28;20500;-62
2023/02/01 00:21:50;;;;;;;1.27;0.70;;;4.30;99.90;;;;;;5117914;28;20420;-62
2023/02/01 00:24:17;;;;;;;1.20;0.60;;;4.30;99.90;;;;;;5118162;28;20843;-58
2023/02/01 00:26:46;;;;;;;1.50;0.70;;;4.30;99.90;;;;;;5116603;28;20734;-58
2023/02/01 00:29:16;;;;;;;1.50;0.60;;;4.30;99.90;;;;;;5117125;28;20972;-59
2023/02/01 00:31:43;;;;;;;1.10;0.70;;;4.30;99.90;;;;;;5117283;28;20696;-58
2023/02/01 00:34:12;;;;;;;1.20;0.60;;;4.30;99.90;;;;;;5115572;28;20791;-62
2023/02/01 00:36:39;;;;;;;1.00;0.60;;;4.30;99.90;;;;;;5115357;28;20443;-61
2023/02/01 00:39:07;;;;;;;1.00;0.60;;;4.40;99.90;;;;;;5116178;28;20421;-61
2023/02/01 00:41:34;;;;;;;1.90;0.60;;;4.30;99.90;;;;;;5114977;28;20689;-61
2023/02/01 00:44:03;;;;;;;1.20;0.60;;;4.30;99.90;;;;;;5113789;28;20905;-61
2023/02/01 00:46:30;;;;;;;0.90;0.60;;;4.40;99.90;;;;;;5113738;28;21012;-61
2023/02/01 00:48:59;;;;;;;1.00;0.60;;;4.30;99.90;;;;;;5114266;28;20432;-61
2023/02/01 00:51:28;;;;;;;1.00;0.60;;;4.30;99.90;;;;;;5115516;28;20416;-61
2023/02/01 00:53:56;;;;;;;0.90;0.60;;;4.30;99.90;;;;;;5113382;28;20499;-61
2023/02/01 00:56:23;;;;;;;0.90;0.60;;;4.30;99.90;;;;;;5115886;28;20411;-61
2023/02/01 00:58:50;;;;;;;0.93;0.50;;;4.30;99.90;;;;;;5117821;28;20463;-61
2023/02/01 01:01:21;;;;;;;1.00;0.60;;;4.40;99.90;;;;;;5114892;28;20455;-61
2023/02/01 01:03:50;;;;;;;0.80;0.50;;;4.40;99.90;;;;;;5116900;28;20736;-61
2023/02/01 01:06:20;;;;;;;0.70;0.50;;;4.40;99.90;;;;;;5116773;28;20419;-61
2023/02/01 01:08:47;;;;;;;0.82;0.50;;;4.50;99.90;;;;;;5117033;28;20848;-61
2023/02/01 01:11:17;;;;;;;1.00;0.60;;;4.50;99.90;;;;;;5115614;28;20736;-61
2023/02/01 01:13:47;;;;;;;1.58;0.60;;;4.50;99.90;;;;;;5116768;28;20432;-61
2023/02/01 01:16:14;;;;;;;0.90;0.50;;;4.50;99.90;;;;;;5116423;28;20452;-62
2023/02/01 01:18:44;;;;;;;0.80;0.50;;;4.50;99.90;;;;;;5116361;28;20424;-61
2023/02/01 01:21:14;;;;;;;0.80;0.50;;;4.50;99.90;;;;;;5115895;28;20427;-61
2023/02/01 01:23:41;;;;;;;0.77;0.50;;;4.50;99.90;;;;;;5115878;28;20843;-61
2023/02/01 01:26:09;;;;;;;0.80;0.50;;;4.40;99.90;;;;;;5115486;28;20785;-61
2023/02/01 01:28:37;;;;;;;1.30;0.55;;;4.40;99.90;;;;;;5114065;28;20515;-61
2023/02/01 01:31:04;;;;;;;0.82;0.50;;;4.40;99.90;;;;;;5116082;28;20429;-61
2023/02/01 01:33:31;;;;;;;0.80;0.50;;;4.50;99.90;;;;;;5116516;28;20423;-61
2023/02/01 01:35:59;;;;;;;0.60;0.40;;;4.50;99.90;;;;;;5116378;28;20424;-61
2023/02/01 01:38:26;;;;;;;1.00;0.40;;;4.50;99.90;;;;;;5116182;28;20428;-62
2023/02/01 01:40:53;;;;;;;0.90;0.50;;;4.50;99.90;;;;;;5116421;28;20416;-60
2023/02/01 01:43:23;;;;;;;0.70;0.40;;;4.50;99.90;;;;;;5115212;28;20759;-63
2023/02/01 01:45:51;;;;;;;1.40;0.40;;;4.50;99.90;;;;;;5116560;28;20433;-63
2023/02/01 01:48:25;;;;;;;0.80;0.40;;;4.50;99.90;;;;;;5115285;28;20925;-62
2023/02/01 01:50:58;;;;;;;1.00;0.50;;;4.50;99.90;;;;;;5116579;28;20439;-63
2023/02/01 01:53:31;;;;;;;0.60;0.40;;;4.50;99.90;;;;;;5115706;28;20435;-62
2023/02/01 01:55:58;;;;;;;0.70;0.50;;;4.40;99.90;;;;;;5113363;28;20863;-62
2023/02/01 01:58:29;;;;;;;0.60;0.40;;;4.40;99.90;;;;;;5115837;28;20745;-62
2023/02/01 02:00:56;;;;;;;0.70;0.40;;;4.40;99.90;;;;;;5114299;28;20413;-62
2023/02/01 02:03:28;;;;;;;0.70;0.40;;;4.50;99.90;;;;;;5116174;28;20420;-62
2023/02/01 02:05:58;;;;;;;0.80;0.40;;;4.50;99.90;;;;;;5115135;28;20420;-62
2023/02/01 02:08:28;;;;;;;0.70;0.40;;;4.50;99.90;;;;;;5116063;28;20432;-62
2023/02/01 02:11:02;;;;;;;0.93;0.40;;;4.40;99.90;;;;;;5115816;28;20863;-62
2023/02/01 02:13:33;;;;;;;0.68;0.40;;;4.50;99.90;;;;;;5115676;28;20831;-62
2023/02/01 02:16:30;;;;;;;0.80;0.40;;;4.50;99.90;;;;;;5114764;28;20430;-62
2023/02/01 02:19:21;;;;;;;0.80;0.50;;;4.60;99.90;;;;;;5043867;28;20858;-62
2023/02/01 02:22:10;;;;;;;0.93;0.50;;;4.50;99.90;;;;;;5074345;28;20704;-62
2023/02/01 02:25:02;;;;;;;0.70;0.40;;;4.60;99.90;;;;;;5113995;28;20432;-62
2023/02/01 02:27:46;;;;;;;0.70;0.40;;;4.60;99.90;;;;;;5112307;28;20431;-62
2023/02/01 02:30:46;;;;;;;1.00;0.40;;;4.70;99.90;;;;;;5112159;28;20432;-62
2023/02/01 02:33:58;;;;;;;0.50;0.40;;;4.60;99.90;;;;;;5108162;28;20491;-62
2023/02/01 02:36:36;;;;;;;0.80;0.40;;;4.60;99.90;;;;;;5113258;28;20408;-62
2023/02/01 02:39:08;;;;;;;0.80;0.50;;;4.60;99.90;;;;;;5113760;28;20428;-62
2023/02/01 02:47:28;;;;;;;0.90;0.50;;;4.80;99.90;;;;;;5094225;28;20405;-62
2023/02/01 02:55:46;;;;;;;0.73;0.50;;;4.70;99.90;;;;;;5114400;28;20403;-62
2023/02/01 03:04:08;;;;;;;0.90;0.60;;;4.60;99.90;;;;;;5115127;28;20842;-62
2023/02/01 03:06:38;;;;;;;0.80;0.50;;;4.60;99.90;;;;;;5113671;28;20420;-61
2023/02/01 03:09:11;;;;;;;0.98;0.60;;;4.60;99.90;;;;;;5113427;28;20819;-62
2023/02/01 03:14:29;;;;;;;0.80;0.50;;;4.60;99.90;;;;;;5112898;28;20399;-62
2023/02/01 03:17:02;;;;;;;0.70;0.50;;;4.60;99.90;;;;;;5112625;28;20443;-62
2023/02/01 03:19:34;;;;;;;0.80;0.50;;;4.50;99.90;;;;;;5112654;28;20435;-62
2023/02/01 03:22:04;;;;;;;0.80;0.60;;;4.60;99.90;;;;;;5114175;28;20419;-62
2023/02/01 03:24:35;;;;;;;0.90;0.50;;;4.50;99.90;;;;;;5114730;28;20712;-62
2023/02/01 03:27:09;;;;;;;0.80;0.50;;;4.60;99.90;;;;;;5114844;28;20421;-62
2023/02/01 03:29:41;;;;;;;1.00;0.55;;;4.60;99.90;;;;;;5094084;28;20433;-62
2023/02/01 03:32:09;;;;;;;1.15;0.60;;;4.60;99.90;;;;;;5092359;28;20427;-59
2023/02/01 03:34:37;;;;;;;1.00;0.60;;;4.60;99.90;;;;;;5094604;28;20555;-61
2023/02/01 03:37:09;;;;;;;1.00;0.60;;;4.50;99.90;;;;;;5103583;28;20420;-62
2023/02/01 03:39:40;;;;;;;1.00;0.60;;;4.50;99.90;;;;;;5117290;28;20739;-62
2023/02/01 03:42:14;;;;;;;0.90;0.60;;;4.50;99.90;;;;;;5119183;28;20412;-62
2023/02/01 03:44:47;;;;;;;0.90;0.50;;;4.40;99.90;;;;;;5119076;28;20452;-61
2023/02/01 03:47:19;;;;;;;1.10;0.60;;;4.50;99.90;;;;;;5116934;28;20423;-62
2023/02/01 03:49:50;;;;;;;1.00;0.52;;;4.50;99.90;;;;;;5118944;28;20467;-61
2023/02/01 03:52:26;;;;;;;1.10;0.60;;;4.50;99.90;;;;;;5119103;28;20408;-61
2023/02/01 03:54:54;;;;;;;0.77;0.50;;;4.50;99.90;;;;;;5116696;28;20435;-62
2023/02/01 03:57:27;;;;;;;1.00;0.60;;;4.50;99.90;;;;;;5118512;28;20416;-62
2023/02/01 03:59:54;;;;;;;1.73;0.70;;;4.50;99.90;;;;;;5117379;28;20477;-61
2023/02/01 04:02:21;;;;;;;0.80;0.50;;;4.60;99.90;;;;;;5116729;28;20935;-62
2023/02/01 04:04:48;;;;;;;0.90;0.60;;;4.60;99.90;;;;;;5114016;27;20451;-63
2023/02/01 04:07:16;;;;;;;0.90;0.60;;;4.50;99.90;;;;;;5116960;28;20416;-62
2023/02/01 04:09:45;;;;;;;1.77;0.60;;;4.50;99.90;;;;;;5117479;28;20428;-61
2023/02/01 04:12:12;;;;;;;1.10;0.60;;;4.50;99.90;;;;;;5116193;28;20427;-61
2023/02/01 04:14:39;;;;;;;0.80;0.53;;;4.50;99.90;;;;;;5113559;28;20427;-61
2023/02/01 04:17:06;;;;;;;0.97;0.60;;;4.50;99.90;;;;;;5116678;28;20420;-61
2023/02/01 04:19:33;;;;;;;0.85;0.57;;;4.50;99.90;;;;;;5116402;28;20431;-62
2023/02/01 04:22:00;;;;;;;0.82;0.60;;;4.50;99.90;;;;;;5114864;28;20421;-61
2023/02/01 04:24:27;;;;;;;1.00;0.60;;;4.50;99.90;;;;;;5116364;28;20423;-62
2023/02/01 04:26:55;;;;;;;0.90;0.60;;;4.60;99.90;;;;;;5116250;28;20421;-61
2023/02/01 04:29:22;;;;;;;0.82;0.60;;;4.60;99.90;;;;;;5116243;28;20467;-61
2023/02/01 04:31:50;;;;;;;1.30;0.50;;;4.60;99.90;;;;;;5114933;28;20777;-61
2023/02/01 04:34:17;;;;;;;0.90;0.50;;;4.60;99.90;;;;;;5117546;28;20463;-61
2023/02/01 04:36:44;;;;;;;1.00;0.50;;;4.60;99.90;;;;;;5117528;28;20459;-61
2023/02/01 04:39:11;;;;;;;1.00;0.60;;;4.60;99.90;;;;;;5117734;28;20433;-61
2023/02/01 04:41:38;;;;;;;0.90;0.60;;;4.60;99.90;;;;;;5116583;28;20420;-61
2023/02/01 04:44:07;;;;;;;1.10;0.50;;;4.60;99.90;;;;;;5117277;28;20420;-61
2023/02/01 04:46:34;;;;;;;0.80;0.60;;;4.70;99.90;;;;;;5116258;28;20420;-61
2023/02/01 04:49:01;;;;;;;1.58;0.50;;;4.70;99.90;;;;;;5115029;28;20430;-61
2023/02/01 04:51:28;;;;;;;1.60;0.60;;;4.70;99.90;;;;;;5115393;28;20428;-61
2023/02/01 04:53:55;;;;;;;0.82;0.50;;;4.70;99.90;;;;;;5115301;28;20747;-61
2023/02/01 04:56:22;;;;;;;1.30;0.60;;;4.80;99.90;;;;;;5114916;28;20411;-61
2023/02/01 04:58:49;;;;;;;0.77;0.50;;;4.80;99.90;;;;;;5115456;28;20427;-62
2023/02/01 05:01:18;;;;;;;0.70;0.50;;;4.80;99.90;;;;;;5116875;28;20408;-62
2023/02/01 05:03:45;;;;;;;0.70;0.50;;;4.80;99.90;;;;;;5116881;28;20435;-62
2023/02/01 05:06:12;;;;;;;0.90;0.40;;;4.80;99.90;;;;;;5117185;28;20442;-62
2023/02/01 05:08:39;;;;;;;0.80;0.40;;;4.80;99.90;;;;;;5112027;28;20878;-62
2023/02/01 05:11:06;;;;;;;1.80;0.47;;;4.80;99.90;;;;;;5115690;28;20440;-61
2023/02/01 05:13:51;;;;;;;0.70;0.40;;;4.80;99.90;;;;;;5115500;28;20843;-62
2023/02/01 05:16:19;;;;;;;0.70;0.40;;;4.90;99.90;;;;;;5114641;28;20415;-62
2023/02/01 05:18:46;;;;;;;0.80;0.50;;;4.90;99.90;;;;;;5115444;28;20428;-62
2023/02/01 05:21:13;;;;;;;0.90;0.50;;;5.00;99.90;;;;;;5113921;28;20427;-62
2023/02/01 05:26:23;;;;;;;0.80;0.50;;;5.00;99.90;;;;;;5115437;28;20461;-62
2023/02/01 05:28:50;;;;;;;0.82;0.50;;;5.00;99.90;;;;;;5116154;28;20420;-62
2023/02/01 05:31:17;;;;;;;1.40;0.60;;;5.00;99.90;;;;;;5114443;28;20427;-62
2023/02/01 05:33:45;;;;;;;0.70;0.40;;;4.90;99.90;;;;;;5109344;28;20425;-62
2023/02/01 05:36:12;;;;;;;1.08;0.50;;;4.90;99.90;;;;;;5093532;28;20418;-62
2023/02/01 05:38:39;;;;;;;0.70;0.50;;;4.90;99.90;;;;;;5106401;28;20424;-62
2023/02/01 05:41:06;;;;;;;1.60;0.40;;;4.90;99.90;;;;;;5115310;28;20413;-62
2023/02/01 05:43:33;;;;;;;0.70;0.50;;;4.90;99.90;;;;;;5115127;28;20740;-62
2023/02/01 05:46:00;;;;;;;0.85;0.45;;;5.00;99.90;;;;;;5099819;28;20826;-62
2023/02/01 05:48:28;;;;;;;0.80;0.50;;;5.00;99.90;;;;;;5095012;28;20426;-62
2023/02/01 05:50:56;;;;;;;0.70;0.50;;;5.00;99.90;;;;;;5104475;28;20488;-62
2023/02/01 05:53:23;;;;;;;0.90;0.50;;;5.00;99.90;;;;;;5112385;28;20428;-62
2023/02/01 05:55:50;;;;;;;0.98;0.50;;;4.90;99.90;;;;;;5108908;28;20427;-62
2023/02/01 05:58:17;;;;;;;0.90;0.60;;;4.90;99.90;;;;;;5102458;28;20752;-61
2023/02/01 06:00:44;;;;;;;0.70;0.50;;;4.90;99.90;;;;;;5092922;28;20421;-60
2023/02/01 06:03:11;;;;;;;0.90;0.50;;;4.70;99.90;;;;;;5105556;28;20428;-61
2023/02/01 06:05:38;;;;;;;1.20;0.50;;;4.70;99.90;;;;;;5113102;28;20420;-61
2023/02/01 06:08:07;;;;;;;0.80;0.50;;;4.60;99.90;;;;;;5113183;28;20747;-61
2023/02/01 06:10:34;;;;;;;0.80;0.50;;;4.60;99.90;;;;;;5113999;28;20975;-61
2023/02/01 06:13:02;;;;;;;1.00;0.50;;;4.60;99.90;;;;;;5114447;28;20416;-61
2023/02/01 06:15:29;;;;;;;1.20;0.60;;;4.50;99.90;;;;;;5113306;28;20477;-61
2023/02/01 06:17:57;;;;;;;1.10;0.50;;;4.50;99.90;;;;;;5113031;28;20942;-61
2023/02/01 06:20:24;;;;;;;0.80;0.50;;;4.50;99.90;;;;;;5113929;28;20812;-61
2023/02/01 06:22:52;;;;;;;1.00;0.50;;;4.40;99.90;;;;;;5111315;28;20830;-61
2023/02/01 06:25:21;;;;;;;1.50;0.50;;;4.40;99.90;;;;;;5111471;28;20867;-60
2023/02/01 06:27:48;;;;;;;0.90;0.50;;;4.50;99.90;;;;;;5112456;28;20416;-61
2023/02/01 06:30:16;;;;;;;0.70;0.50;;;4.50;99.90;;;;;;5112357;28;20428;-60
2023/02/01 06:32:43;;;;;;;0.70;0.50;;;4.60;99.90;;;;;;5112385;28;20428;-60
2023/02/01 06:35:15;;;;;;;1.40;0.50;;;4.60;99.90;;;;;;5112635;28;20439;-60
2023/02/01 06:37:43;;;;;;;0.95;0.60;;;4.60;99.90;;;;;;5110617;28;20412;-60
2023/02/01 06:40:11;;;;;;;0.70;0.40;;;4.70;99.90;;;;;;5112073;28;20762;-61
2023/02/01 06:42:39;;;;;;;1.20;0.60;;;4.80;99.90;;;;;;5109911;28;20417;-60
2023/02/01 06:45:10;;;;;;;1.00;0.50;;;4.90;99.90;;;;;;5109411;28;20878;-60
2023/02/01 06:47:37;;;;;;;1.00;0.50;;;5.00;99.90;;;;;;5109665;28;20412;-61
2023/02/01 06:50:05;;;;;;;1.40;0.50;;;5.20;99.90;;;;;;5110072;28;20428;-61
2023/02/01 06:52:32;;;;;;;0.80;0.50;;;5.30;99.90;;;;;;5109794;28;21040;-60
2023/02/01 06:54:59;;;;;;;1.55;0.60;;;5.20;99.90;;;;;;5109877;28;20416;-60
2023/02/01 06:57:30;;;;;;;1.40;0.50;;;5.20;99.90;;;;;;5111787;28;20419;-60
2023/02/01 06:59:59;;;;;;;1.20;0.50;;;5.10;99.90;;;;;;5112085;28;20457;-60
2023/02/01 07:02:26;;;;;;;1.00;0.50;;;5.10;99.90;;;;;;5104615;28;20449;-60
2023/02/01 07:04:53;;;;;;;1.10;0.60;;;5.10;99.90;;;;;;5099387;28;21035;-60
2023/02/01 07:07:22;;;;;;;1.57;0.80;;;5.10;99.90;;;;;;5090801;28;20429;-60
2023/02/01 07:09:49;;;;;;;0.80;0.50;;;5.10;99.90;;;;;;5110018;28;20428;-60
2023/02/01 07:12:17;;;;;;;2.20;0.60;;;5.20;99.90;;;;;;5097278;28;20461;-61
2023/02/01 07:14:44;;;;;;;1.47;0.60;;;5.20;99.90;;;;;;5107572;28;20428;-61
2023/02/01 07:17:12;;;;;;;1.63;0.50;;;5.20;99.90;;;;;;5095385;28;20433;-62
2023/02/01 07:19:39;;;;;;;1.40;0.60;;;5.30;99.90;;;;;;5095382;28;20941;-61
2023/02/01 07:22:06;;;;;;;1.70;0.60;;;5.30;99.90;;;;;;5100178;27;20421;-61
2023/02/01 07:24:34;;;;;;;1.80;0.60;;;5.30;99.90;;;;;;5093130;28;20436;-60
2023/02/01 07:27:02;;;;;;;1.00;0.60;;;5.30;99.90;;;;;;5096853;28;20420;-61
2023/02/01 07:29:29;;;;;;;1.25;0.50;;;5.20;99.90;;;;;;5113166;28;20430;-61
2023/02/01 07:31:56;;;;;;;0.80;0.52;;;5.30;99.90;;;;;;5095495;28;21008;-61
2023/02/01 07:34:24;;;;;;;1.50;0.52;;;5.30;99.90;;;;;;5094545;28;20425;-60
2023/02/01 07:36:51;;;;;;;1.60;0.60;;;5.40;99.90;;;;;;5091643;28;20427;-61
2023/02/01 07:39:18;;;;;;;1.10;0.60;;;5.40;99.90;;;;;;5103641;27;20869;-61
2023/02/01 07:41:46;;;;;;;0.80;0.60;;;5.40;99.90;;;;;;5136205;27;20623;-61
2023/02/01 07:44:13;;;;;;;1.10;0.60;;;5.40;99.90;;;;;;5135877;27;20429;-61
2023/02/01 07:46:43;;;;;;;0.90;0.50;;;5.40;99.90;;;;;;5135777;27;20823;-61
2023/02/01 07:49:10;;;;;;;0.90;0.40;;;5.40;99.90;;;;;;5106921;27;20811;-61
2023/02/01 07:51:38;;;;;;;1.00;0.60;;;5.40;99.90;;;;;;5099665;28;20863;-61
2023/02/01 07:54:05;;;;;;;1.70;0.50;;;5.30;99.90;;;;;;5112967;28;20444;-62
2023/02/01 07:56:32;;;;;;;0.90;0.60;;;5.40;99.90;;;;;;5092330;28;20729;-62
2023/02/01 07:59:00;;;;;;;1.40;0.60;;;5.40;99.90;;;;;;5100955;28;20783;-62
2023/02/01 08:01:28;;;;;;;1.75;0.60;;;5.40;99.90;;;;;;5095107;28;20426;-62
2023/02/01 08:03:56;;;;;;;1.50;0.50;;;5.50;99.90;;;;;;5095429;28;20428;-62
2023/02/01 08:06:25;;;;;;;0.90;0.50;;;5.60;99.90;;;;;;5108591;28;20436;-62
2023/02/01 08:08:54;;;;;;;0.80;0.50;;;5.60;99.90;;;;;;5099921;28;20803;-62
2023/02/01 08:11:23;;;;;;;1.10;0.50;;;5.70;99.90;;;;;;5094279;28;20477;-62
2023/02/01 08:13:50;;;;;;;0.85;0.50;;;5.70;99.90;;;;;;5093547;28;20438;-62
2023/02/01 08:16:19;;;;;;;2.15;0.70;;;5.90;99.90;;;;;;5095681;28;20434;-62
2023/02/01 08:18:46;;;;;;;1.38;0.60;;;5.90;99.90;;;;;;5092505;28;20445;-62
2023/02/01 08:21:15;;;;;;;0.90;0.50;;;5.80;99.90;;;;;;5093722;28;20430;-61
2023/02/01 08:23:43;;;;;;;1.92;0.60;;;5.80;99.90;;;;;;5093983;28;20442;-61
2023/02/01 08:26:14;;;;;;;1.90;0.60;;;5.80;99.90;;;;;;5093794;28;20438;-61
2023/02/01 08:28:42;;;;;;;2.40;0.60;;;5.90;99.90;;;;;;5108426;28;20433;-61
2023/02/01 08:31:12;;;;;;;1.48;0.60;;;5.80;99.90;;;;;;5100586;28;20432;-61
2023/02/01 08:33:39;;;;;;;1.70;0.50;;;5.80;99.90;;;;;;5096679;28;20456;-61
2023/02/01 08:36:08;;;;;;;1.52;0.60;;;5.80;99.90;;;;;;5093370;28;20418;-61
2023/02/01 08:38:36;;;;;;;1.83;0.63;;;5.90;99.90;;;;;;5099677;28;20435;-61
2023/02/01 08:41:06;;;;;;;1.55;0.60;;;6.00;99.90;;;;;;5091981;28;20462;-62
2023/02/01 08:43:35;;;;;;;1.40;0.50;;;6.20;99.90;;;;;;5091097;28;20444;-62
2023/02/01 08:46:02;;;;;;;1.90;0.50;;;6.30;99.90;;;;;;5091003;28;20595;-61
2023/02/01 08:48:29;;;;;;;1.98;0.70;;;6.40;99.90;;;;;;5102820;28;20436;-61
2023/02/01 08:50:56;;;;;;;1.05;0.60;;;6.40;99.90;;;;;;5112344;28;20763;-61
2023/02/01 08:53:23;;;;;;;1.70;0.60;;;6.40;99.90;;;;;;5093169;28;20749;-61
2023/02/01 08:55:50;;;;;;;1.00;0.50;;;6.30;99.90;;;;;;5097488;28;20432;-61
2023/02/01 08:58:17;;;;;;;0.93;0.60;;;6.20;99.90;;;;;;5095375;28;20533;-62
2023/02/01 09:00:47;;;;;;;2.00;0.60;;;6.20;99.90;;;;;;5092731;28;20888;-63
2023/02/01 09:03:15;;;;;;;2.20;0.60;;;6.50;99.90;;;;;;5106951;28;20935;-63
2023/02/01 09:05:42;;;;;;;0.80;0.50;;;6.60;99.90;;;;;;5091233;28;20418;-62
2023/02/01 09:08:10;;;;;;;1.80;0.55;;;6.70;99.90;;;;;;5092345;28;20461;-62
2023/02/01 09:10:37;;;;;;;1.80;0.50;;;6.90;99.90;;;;;;5097660;28;20432;-63
2023/02/01 09:13:05;;;;;;;1.70;0.50;;;6.80;99.90;;;;;;5106402;28;20529;-64
2023/02/01 09:15:32;;;;;;;1.30;0.50;;;6.80;99.90;;;;;;5102693;28;20522;-62
2023/02/01 09:18:00;;;;;;;1.42;0.50;;;7.00;99.90;;;;;;5097848;28;20741;-63
2023/02/01 09:20:27;;;;;;;0.95;0.60;;;7.10;99.90;;;;;;5091186;28;20444;-59
2023/02/01 09:22:56;;;;;;;1.95;0.60;;;7.00;99.90;;;;;;5090209;28;20857;-59
2023/02/01 09:25:23;;;;;;;1.60;0.60;;;6.90;99.90;;;;;;5102022;28;20441;-59
2023/02/01 09:27:50;;;;;;;2.30;0.60;;;6.80;99.90;;;;;;5092813;28;20761;-59
2023/02/01 09:30:17;;;;;;;1.40;0.50;;;6.70;99.90;;;;;;5094449;28;20428;-59
2023/02/01 09:32:44;;;;;;;2.30;0.70;;;6.70;99.90;;;;;;5098793;28;20435;-59
2023/02/01 09:35:13;;;;;;;2.60;0.60;;;6.70;99.90;;;;;;5097854;28;20974;-60
2023/02/01 09:37:40;;;;;;;1.67;0.57;;;6.80;99.90;;;;;;5096131;28;20441;-60
2023/02/01 09:40:11;;;;;;;2.35;0.50;;;6.90;99.90;;;;;;5103001;28;20747;-59
2023/02/01 09:43:01;;;;;;;1.70;0.60;;;7.00;99.90;;;;;;5097839;28;20429;-59
2023/02/01 09:45:37;;;;;;;1.67;0.68;;;7.10;99.90;;;;;;5094370;28;20466;-59
2023/02/01 09:48:12;;;;;;;3.58;0.60;;;7.10;99.90;;;;;;5097754;28;20908;-60
2023/02/01 09:50:43;;;;;;;1.60;0.50;;;7.20;99.90;;;;;;5093736;28;20523;-60
2023/02/01 09:53:16;;;;;;;2.53;0.70;;;7.30;99.90;;;;;;5096062;28;20450;-60
2023/02/01 09:55:47;;;;;;;1.25;0.50;;;7.30;99.90;;;;;;5095963;28;20440;-60
2023/02/01 09:58:18;;;;;;;2.45;0.50;;;7.20;99.90;;;;;;5089771;28;20473;-60
2023/02/01 10:00:52;;;;;;;2.40;0.50;;;7.30;99.90;;;;;;5092427;28;20760;-59
2023/02/01 10:03:20;;;;;;;2.30;0.60;;;7.20;99.90;;;;;;5104249;28;20454;-59
2023/02/01 10:06:08;;;;;;;2.67;0.60;;;7.30;99.90;;;;;;5099141;28;20440;-59
2023/02/01 10:08:45;;;;;;;2.40;0.60;;;7.40;99.90;;;;;;5095219;28;20426;-61
2023/02/01 10:11:24;;;;;;;3.47;0.80;;;7.30;99.90;;;;;;5097619;28;20440;-59
2023/02/01 10:14:01;;;;;;;1.20;0.50;;;7.30;99.90;;;;;;5093716;28;21289;-60
2023/02/01 10:16:37;;;;;;;2.40;0.40;;;7.20;99.90;;;;;;5091774;28;20445;-61
2023/02/01 10:19:31;;;;;;;2.20;0.50;;;7.10;99.90;;;;;;5097836;28;20445;-59
2023/02/01 10:22:05;;;;;;;1.25;0.40;;;7.10;99.90;;;;;;5097669;28;20418;-59
2023/02/01 10:24:42;;;;;;;2.63;0.60;;;7.20;99.90;;;;;;5101793;28;20749;-63
2023/02/01 10:27:15;;;;;;;2.30;0.50;;;7.40;99.90;;;;;;5094512;28;20455;-59
2023/02/01 10:29:45;;;;;;;5.22;0.80;;;7.50;99.90;;;;;;5099159;28;20432;-63
2023/02/01 10:32:15;;;;;;;2.03;0.60;;;7.80;99.90;;;;;;5093289;28;20512;-62
2023/02/01 10:34:45;;;;;;;3.28;0.60;;;7.80;99.90;;;;;;5098954;28;20531;-61
2023/02/01 10:37:27;;;;;;;2.42;0.60;;;7.70;99.90;;;;;;5103967;28;20985;-60
2023/02/01 10:39:56;;;;;;;2.83;0.60;;;7.80;99.90;;;;;;5097424;28;20440;-61
2023/02/01 10:42:27;;;;;;;2.10;0.60;;;8.20;99.90;;;;;;5098156;28;20434;-60
2023/02/01 10:44:57;;;;;;;2.23;0.50;;;8.50;99.90;;;;;;5093782;28;20449;-60
2023/02/01 10:47:24;;;;;;;3.40;0.47;;;8.40;99.90;;;;;;5097030;28;21744;-60
2023/02/01 10:49:59;;;;;;;3.60;0.50;;;8.10;99.90;;;;;;5097570;28;20501;-60
2023/02/01 10:52:37;;;;;;;1.80;0.50;;;8.00;99.90;;;;;;5093369;28;20430;-59
2023/02/01 10:55:38;;;;;;;1.80;0.60;;;8.00;99.90;;;;;;5088753;28;20434;-59
2023/02/01 10:58:08;;;;;;;1.52;0.55;;;8.10;99.90;;;;;;5087702;28;20738;-59
2023/02/01 11:00:49;;;;;;;1.60;0.40;;;8.10;99.90;;;;;;5094622;28;20710;-59
2023/02/01 11:03:39;;;;;;;2.05;0.60;;;7.90;99.90;;;;;;5092315;28;20433;-60
2023/02/01 11:06:25;;;;;;;2.20;0.55;;;8.00;99.90;;;;;;5095054;28;20788;-61
2023/02/01 11:08:55;;;;;;;1.60;0.50;;;7.80;99.90;;;;;;5096952;28;20431;-60
2023/02/01 11:11:23;;;;;;;2.10;0.60;;;7.70;99.90;;;;;;5090526;28;20431;-60
2023/02/01 11:13:56;;;;;;;3.58;0.60;;;7.90;99.90;;;;;;5094664;28;20463;-61
2023/02/01 11:16:30;;;;;;;2.37;0.60;;;8.20;99.90;;;;;;5093062;28;20434;-60
2023/02/01 11:18:59;;;;;;;2.13;0.60;;;8.40;99.90;;;;;;5093071;28;20438;-62
2023/02/01 11:21:28;;;;;;;2.70;0.60;;;8.30;99.90;;;;;;5101491;28;20431;-61
2023/02/01 11:24:01;;;;;;;2.10;0.50;;;8.00;99.90;;;;;;5095712;28;20766;-62
2023/02/01 11:26:28;;;;;;;2.80;0.60;;;7.90;99.90;;;;;;5093374;28;20857;-61
2023/02/01 11:29:00;;;;;;;1.08;0.57;;;7.90;99.90;;;;;;5092193;28;20422;-60
2023/02/01 11:31:28;;;;;;;6.25;1.10;;;7.70;99.90;;;;;;5096409;28;20782;-59
2023/02/01 11:33:59;;;;;;;2.80;0.50;;;7.80;99.90;;;;;;5100902;28;20887;-60
2023/02/01 11:36:28;;;;;;;1.60;0.50;;;7.80;99.90;;;;;;5097145;28;20439;-60
2023/02/01 11:39:11;;;;;;;2.77;0.50;;;7.70;99.90;;;;;;5098791;28;20433;-59
2023/02/01 11:41:55;;;;;;;3.50;0.60;;;7.50;99.90;;;;;;5094013;28;20429;-59
2023/02/01 11:44:27;;;;;;;2.10;0.50;;;7.50;99.90;;;;;;5092662;28;20495;-59
2023/02/01 11:46:54;;;;;;;3.50;0.60;;;7.50;99.90;;;;;;5099464;28;20436;-59
2023/02/01 11:49:23;;;;;;;2.63;0.65;;;7.60;99.90;;;;;;5092087;28;20433;-59
2023/02/01 11:52:05;;;;;;;1.35;0.60;;;7.80;99.90;;;;;;5094811;28;20813;-59
2023/02/01 11:54:46;;;;;;;2.30;0.60;;;7.70;99.90;;;;;;5091914;28;20443;-59
2023/02/01 11:57:30;;;;;;;2.30;0.50;;;7.80;99.90;;;;;;5106532;28;20428;-59
2023/02/01 12:00:22;;;;;;;2.20;0.50;;;7.90;99.90;;;;;;5093668;28;20465;-58
2023/02/01 12:03:09;;;;;;;1.38;0.47;;;7.90;99.90;;;;;;5099274;28;20727;-60
2023/02/01 12:05:49;;;;;;;2.00;0.40;;;7.90;99.90;;;;;;5095583;28;20434;-60
2023/02/01 12:08:35;;;;;;;3.28;0.90;;;7.90;99.90;;;;;;5106634;28;20714;-59
2023/02/01 12:11:22;;;;;;;3.05;0.60;;;8.10;99.90;;;;;;5093100;28;20434;-60
2023/02/01 12:13:59;;;;;;;2.30;0.50;;;8.20;99.90;;;;;;5092082;28;20436;-59
2023/02/01 12:16:35;;;;;;;2.00;0.40;;;8.20;99.90;;;;;;5094926;28;20438;-61
2023/02/01 12:19:28;;;;;;;2.85;0.50;;;8.10;99.90;;;;;;5106483;28;20791;-60
2023/02/01 12:22:05;;;;;;;1.40;0.50;;;8.20;99.90;;;;;;5102758;28;20434;-60
2023/02/01 12:24:55;;;;;;;1.10;0.40;;;8.20;99.90;;;;;;5101877;28;20465;-60
2023/02/01 12:27:44;;;;;;;2.05;0.50;;;8.00;99.90;;;;;;5098971;28;20416;-60
2023/02/01 12:30:42;;;;;;;3.28;0.40;;;7.80;99.90;;;;;;5096204;28;20745;-60
2023/02/01 12:33:18;;;;;;;1.27;0.45;;;7.80;99.90;;;;;;5094600;28;20436;-59
2023/02/01 12:35:58;;;;;;;1.42;0.40;;;7.70;99.90;;;;;;5102456;28;20760;-59
2023/02/01 12:38:40;;;;;;;2.20;0.50;;;7.70;99.90;;;;;;5090997;28;20442;-59
2023/02/01 12:41:21;;;;;;;2.30;0.50;;;7.70;99.90;;;;;;5099136;28;20865;-59
2023/02/01 12:43:54;;;;;;;1.77;0.40;;;7.60;99.90;;;;;;5100485;28;20424;-59
2023/02/01 12:46:28;;;;;;;1.50;0.40;;;7.40;99.90;;;;;;5092880;28;21123;-59
2023/02/01 12:49:00;;;;;;;1.88;0.50;;;7.40;99.90;;;;;;5095947;28;20444;-59
2023/02/01 12:51:32;;;;;;;1.70;0.50;;;7.40;99.90;;;;;;5100258;28;20430;-59
2023/02/01 12:54:04;;;;;;;2.65;0.40;;;7.30;99.90;;;;;;5096324;28;20845;-60
2023/02/01 12:56:38;;;;;;;1.20;0.50;;;7.20;99.90;;;;;;5094475;28;20448;-58
2023/02/01 12:59:19;;;;;;;4.60;0.80;;;7.30;99.90;;;;;;5097318;28;20441;-59
2023/02/01 13:01:51;;;;;;;2.67;0.50;;;7.20;99.90;;;;;;5095824;28;21090;-58
2023/02/01 13:04:26;;;;;;;2.30;0.45;;;7.10;99.90;;;;;;5092524;28;20474;-59
2023/02/01 13:06:58;;;;;;;1.77;0.40;;;7.10;99.90;;;;;;5098836;28;20435;-59
2023/02/01 13:09:31;;;;;;;1.10;0.40;;;7.20;99.90;;;;;;5093194;28;20429;-59
2023/02/01 13:12:07;;;;;;;2.28;0.50;;;7.20;99.90;;;;;;5093671;28;20433;-61
2023/02/01 13:14:42;;;;;;;1.80;0.50;;;7.20;99.90;;;;;;5092182;28;20956;-59
2023/02/01 13:17:14;;;;;;;3.35;0.40;;;7.10;99.90;;;;;;5098890;28;20500;-59
2023/02/01 13:19:47;;;;;;;2.20;0.43;;;7.20;99.90;;;;;;5101056;28;20979;-59
2023/02/01 13:22:20;;;;;;;1.80;0.45;;;7.30;99.90;;;;;;5096143;28;20755;-59
2023/02/01 13:24:51;;;;;;;2.20;0.50;;;7.40;99.90;;;;;;5090473;28;20440;-60
2023/02/01 13:27:19;;;;;;;3.50;0.50;;;7.20;99.90;;;;;;5092670;28;20456;-60
2023/02/01 13:29:56;;;;;;;3.95;0.60;;;7.20;99.90;;;;;;5099791;28;20418;-59
2023/02/01 13:32:58;;;;;;;2.80;0.60;;;7.30;99.90;;;;;;5090934;28;20433;-59
2023/02/01 13:35:49;;;;;;;1.50;0.47;;;7.20;99.90;;;;;;5092417;28;20424;-59
2023/02/01 13:38:37;;;;;;;1.40;0.50;;;7.20;99.90;;;;;;5090826;28;20442;-61
2023/02/01 13:41:16;;;;;;;2.83;0.50;;;7.20;99.90;;;;;;5090208;28;20438;-60
2023/02/01 13:43:47;;;;;;;3.53;0.40;;;7.40;99.90;;;;;;5092253;28;21021;-59